createdAt,value
2018-10-11T00:01:54.862Z,21.37
2018-10-11T00:04:23.548Z,20.67
2018-10-11T00:06:52.212Z,20.50
2018-10-11T00:09:20.948Z,20.60
2018-10-11T00:11:49.626Z,20.43
2018-10-11T00:14:18.318Z,20.63
2018-10-11T00:16:47.022Z,20.23
2018-10-11T00:19:15.721Z,19.83
2018-10-11T00:21:44.646Z,21.63
2018-10-11T00:24:13.637Z,20.53
2018-10-11T00:26:42.381Z,22.00
2018-10-11T00:29:11.215Z,21.00
2018-10-11T00:31:39.925Z,20.97
2018-10-11T00:34:08.573Z,21.60
2018-10-11T00:36:37.375Z,22.17
2018-10-11T00:39:07.120Z,21.47
2018-10-11T00:41:35.814Z,21.00
2018-10-11T00:44:04.939Z,22.37
2018-10-11T00:46:33.554Z,22.40
2018-10-11T00:49:02.295Z,22.87
2018-10-11T00:51:31.345Z,20.97
2018-10-11T00:54:00.091Z,21.33
2018-10-11T00:56:28.920Z,21.53
2018-10-11T00:58:57.688Z,21.43
2018-10-11T01:01:26.369Z,22.17
2018-10-11T01:03:55.082Z,21.30
2018-10-11T01:06:23.844Z,22.20
2018-10-11T01:08:52.631Z,21.17
2018-10-11T01:11:21.409Z,21.93
2018-10-11T01:13:50.137Z,22.20
2018-10-11T01:16:18.806Z,22.23
2018-10-11T01:18:47.535Z,21.50
2018-10-11T01:21:16.703Z,22.03
2018-10-11T01:23:45.956Z,22.40
2018-10-11T01:26:14.979Z,23.60
2018-10-11T01:28:43.686Z,22.40
2018-10-11T01:31:17.761Z,23.33
2018-10-11T01:33:46.633Z,23.13
2018-10-11T01:36:15.344Z,23.07
2018-10-11T01:38:44.376Z,22.43
2018-10-11T01:41:13.442Z,23.90
2018-10-11T01:43:42.254Z,22.27
2018-10-11T01:46:11.146Z,23.43
2018-10-11T01:48:39.886Z,22.10
2018-10-11T01:51:09.145Z,22.40
2018-10-11T01:53:37.837Z,22.70
2018-10-11T01:56:06.523Z,21.97
2018-10-11T01:58:35.255Z,21.87
2018-10-11T02:01:03.930Z,23.87
2018-10-11T02:03:32.693Z,22.97
2018-10-11T02:06:01.407Z,22.87
2018-10-11T02:08:30.086Z,23.57
2018-10-11T02:10:58.770Z,24.37
2018-10-11T02:13:27.597Z,22.97
2018-10-11T02:15:56.256Z,22.60
2018-10-11T02:18:25.005Z,23.87
2018-10-11T02:20:53.695Z,23.67
2018-10-11T02:23:22.379Z,23.77
2018-10-11T02:25:51.075Z,23.43
2018-10-11T02:28:19.771Z,23.63
2018-10-11T02:30:48.416Z,24.07
2018-10-11T02:33:17.080Z,23.60
2018-10-11T02:35:45.748Z,23.83
2018-10-11T02:38:14.429Z,22.87
2018-10-11T02:40:43.345Z,25.77
2018-10-11T02:43:12.249Z,24.77
2018-10-11T02:45:40.938Z,23.93
2018-10-11T02:48:10.104Z,23.63
2018-10-11T02:50:38.805Z,24.83
2018-10-11T02:53:07.525Z,24.20
2018-10-11T02:55:36.351Z,23.50
2018-10-11T02:58:16.069Z,23.50
2018-10-11T03:00:45.003Z,23.43
2018-10-11T03:03:14.763Z,25.03
2018-10-11T03:05:45.590Z,24.07
2018-10-11T03:08:18.906Z,23.63
2018-10-11T03:10:48.001Z,24.63
2018-10-11T03:13:17.110Z,24.57
2018-10-11T03:15:45.852Z,24.83
2018-10-11T03:18:15.197Z,25.67
2018-10-11T03:20:45.074Z,24.00
2018-10-11T03:23:14.761Z,25.13
2018-10-11T03:25:44.501Z,24.00
2018-10-11T03:28:15.526Z,24.23
2018-10-11T03:30:44.486Z,25.10
2018-10-11T03:33:14.212Z,26.40
2018-10-11T03:35:44.138Z,24.33
2018-10-11T03:38:13.073Z,24.37
2018-10-11T03:40:42.117Z,24.77
2018-10-11T03:43:11.025Z,23.67
2018-10-11T03:45:39.852Z,24.57
2018-10-11T03:48:08.791Z,23.77
2018-10-11T03:50:37.475Z,25.83
2018-10-11T03:53:06.233Z,23.73
2018-10-11T03:55:35.214Z,24.77
2018-10-11T03:58:03.973Z,24.93
2018-10-11T04:00:32.699Z,25.93
2018-10-11T04:03:01.416Z,24.77
2018-10-11T04:05:30.146Z,23.93
2018-10-11T04:07:58.840Z,25.07
2018-10-11T04:10:27.576Z,25.90
2018-10-11T04:12:56.276Z,25.43
2018-10-11T04:15:24.963Z,25.73
2018-10-11T04:17:53.914Z,26.37
2018-10-11T04:20:22.553Z,26.50
2018-10-11T04:22:51.330Z,29.27
2018-10-11T04:25:20.052Z,25.83
2018-10-11T04:27:48.724Z,25.17
2018-10-11T04:30:17.612Z,25.93
2018-10-11T04:32:46.317Z,25.83
2018-10-11T04:35:15.027Z,26.43
2018-10-11T04:37:43.879Z,26.27
2018-10-11T04:40:12.520Z,27.43
2018-10-11T04:42:41.247Z,25.80
2018-10-11T04:45:09.955Z,26.27
2018-10-11T04:47:38.643Z,26.10
2018-10-11T04:50:07.386Z,26.43
2018-10-11T04:52:36.297Z,27.60
2018-10-11T04:55:05.415Z,27.17
2018-10-11T04:57:34.107Z,27.23
2018-10-11T05:00:03.219Z,27.40
2018-10-11T05:02:31.921Z,27.70
2018-10-11T05:05:00.660Z,26.67
2018-10-11T05:07:29.349Z,26.50
2018-10-11T05:09:58.041Z,27.00
2018-10-11T05:12:26.773Z,27.23
2018-10-11T05:14:56.097Z,27.27
2018-10-11T05:17:25.095Z,27.37
2018-10-11T05:19:53.827Z,27.73
2018-10-11T05:22:22.529Z,27.50
2018-10-11T05:24:51.399Z,27.73
2018-10-11T05:27:20.180Z,27.03
2018-10-11T05:29:48.882Z,28.03
2018-10-11T05:32:17.707Z,26.27
2018-10-11T05:34:46.620Z,26.93
2018-10-11T05:37:15.444Z,27.27
2018-10-11T05:39:44.241Z,28.13
2018-10-11T05:42:13.348Z,28.40
2018-10-11T05:44:43.157Z,27.50
2018-10-11T05:47:12.341Z,27.07
2018-10-11T05:49:41.236Z,27.90
2018-10-11T05:52:10.007Z,28.63
2018-10-11T05:54:38.914Z,27.93
2018-10-11T05:57:07.783Z,28.93
2018-10-11T05:59:36.695Z,28.20
2018-10-11T06:02:05.481Z,28.97
2018-10-11T06:04:34.236Z,30.27
2018-10-11T06:07:03.064Z,29.23
2018-10-11T06:09:31.915Z,28.13
2018-10-11T06:12:00.718Z,28.67
2018-10-11T06:14:29.471Z,28.70
2018-10-11T06:16:58.367Z,30.33
2018-10-11T06:19:27.308Z,28.73
2018-10-11T06:21:56.100Z,29.23
2018-10-11T06:24:24.845Z,29.33
2018-10-11T06:26:53.539Z,29.80
2018-10-11T06:29:22.387Z,30.77
2018-10-11T06:31:51.117Z,31.03
2018-10-11T06:34:19.908Z,29.00
2018-10-11T06:36:48.873Z,29.63
2018-10-11T06:39:17.776Z,29.33
2018-10-11T06:41:46.604Z,29.07
2018-10-11T06:44:15.437Z,28.43
2018-10-11T06:46:44.449Z,31.20
2018-10-11T06:49:13.350Z,31.80
2018-10-11T06:51:42.158Z,30.67
2018-10-11T06:54:10.912Z,27.77
2018-10-11T06:56:39.584Z,27.93
2018-10-11T06:59:08.287Z,30.17
2018-10-11T07:01:37.121Z,28.37
2018-10-11T07:04:05.976Z,34.53
2018-10-11T07:06:34.682Z,30.10
2018-10-11T07:09:04.062Z,35.00
2018-10-11T07:11:32.845Z,37.30
2018-10-11T07:14:01.781Z,32.43
2018-10-11T07:16:30.412Z,29.43
2018-10-11T07:18:59.194Z,29.20
2018-10-11T07:21:27.899Z,30.40
2018-10-11T07:23:56.559Z,29.87
2018-10-11T07:26:25.451Z,28.33
2018-10-11T07:28:54.261Z,30.50
2018-10-11T07:31:22.975Z,30.37
2018-10-11T07:33:51.682Z,30.33
2018-10-11T07:36:20.381Z,32.57
2018-10-11T07:38:49.188Z,31.37
2018-10-11T07:41:17.864Z,29.43
2018-10-11T07:43:46.490Z,31.23
2018-10-11T07:46:15.293Z,28.77
2018-10-11T07:48:44.170Z,29.53
2018-10-11T07:51:12.970Z,29.23
2018-10-11T07:53:41.622Z,29.23
2018-10-11T07:56:10.513Z,29.83
2018-10-11T07:58:39.607Z,29.73
2018-10-11T08:01:08.347Z,30.50
2018-10-11T08:03:37.088Z,29.97
2018-10-11T08:06:05.838Z,29.40
2018-10-11T08:08:34.686Z,27.97
2018-10-11T08:11:03.383Z,28.97
2018-10-11T08:13:32.020Z,31.03
2018-10-11T08:16:00.729Z,28.57
2018-10-11T08:18:29.609Z,27.93
2018-10-11T08:20:58.668Z,28.23
2018-10-11T08:23:27.388Z,29.27
2018-10-11T08:25:56.359Z,29.63
2018-10-11T08:28:24.834Z,29.83
2018-10-11T08:30:53.576Z,28.47
2018-10-11T08:33:23.067Z,28.13
2018-10-11T08:35:51.752Z,27.33
2018-10-11T08:38:20.488Z,27.90
2018-10-11T08:40:49.302Z,29.03
2018-10-11T08:43:18.118Z,28.23
2018-10-11T08:45:46.798Z,27.37
2018-10-11T08:48:15.524Z,28.03
2018-10-11T08:50:44.387Z,28.63
2018-10-11T08:53:13.515Z,27.10
2018-10-11T08:55:42.306Z,26.67
2018-10-11T08:58:11.117Z,27.93
2018-10-11T09:00:39.909Z,27.60
2018-10-11T09:03:08.614Z,31.30
2018-10-11T09:05:37.348Z,28.07
2018-10-11T09:08:06.215Z,28.33
2018-10-11T09:10:38.346Z,26.03
2018-10-11T09:13:04.185Z,26.83
2018-10-11T09:15:33.054Z,28.53
2018-10-11T09:18:01.758Z,26.93
2018-10-11T09:20:30.433Z,26.73
2018-10-11T09:22:59.185Z,26.97
2018-10-11T09:25:27.886Z,26.17
2018-10-11T09:27:56.676Z,26.73
2018-10-11T09:30:25.602Z,24.77
2018-10-11T09:32:54.263Z,25.07
2018-10-11T09:35:23.091Z,26.40
2018-10-11T09:37:51.762Z,26.10
2018-10-11T09:40:20.501Z,24.80
2018-10-11T09:42:49.398Z,26.90
2018-10-11T09:45:18.129Z,25.93
2018-10-11T09:47:47.171Z,26.27
2018-10-11T09:50:15.901Z,24.63
2018-10-11T09:52:44.673Z,25.77
2018-10-11T09:55:13.347Z,24.43
2018-10-11T09:57:42.088Z,24.30
2018-10-11T10:00:16.992Z,23.70
2018-10-11T10:02:47.212Z,24.20
2018-10-11T10:05:15.891Z,23.97
2018-10-11T10:07:44.750Z,24.47
2018-10-11T10:10:13.540Z,24.37
2018-10-11T10:12:42.289Z,23.57
2018-10-11T10:15:11.217Z,24.10
2018-10-11T10:17:40.027Z,23.63
2018-10-11T10:20:08.842Z,22.80
2018-10-11T10:22:37.589Z,23.67
2018-10-11T10:25:06.342Z,22.67
2018-10-11T10:27:35.481Z,23.87
2018-10-11T10:30:08.045Z,24.30
2018-10-11T10:32:36.832Z,23.23
2018-10-11T10:35:05.554Z,21.97
2018-10-11T10:37:34.234Z,22.77
2018-10-11T10:40:03.094Z,22.70
2018-10-11T10:42:31.982Z,22.73
2018-10-11T10:45:00.879Z,22.07
2018-10-11T10:47:29.773Z,22.90
2018-10-11T10:49:58.480Z,23.53
2018-10-11T10:52:27.212Z,23.40
2018-10-11T10:54:55.946Z,22.10
2018-10-11T10:57:24.671Z,23.60
2018-10-11T10:59:53.380Z,24.13
2018-10-11T11:02:22.079Z,21.93
2018-10-11T11:04:50.766Z,23.67
2018-10-11T11:07:19.733Z,24.00
2018-10-11T11:09:48.500Z,22.37
2018-10-11T11:12:17.468Z,23.27
2018-10-11T11:14:46.204Z,23.57
2018-10-11T11:17:15.028Z,23.53
2018-10-11T11:19:44.025Z,22.70
2018-10-11T11:22:12.791Z,21.77
2018-10-11T11:24:41.578Z,25.03
2018-10-11T11:27:10.305Z,23.13
2018-10-11T11:29:39.007Z,23.27
2018-10-11T11:32:07.711Z,23.20
2018-10-11T11:34:36.825Z,23.80
2018-10-11T11:37:05.681Z,22.53
2018-10-11T11:39:34.561Z,22.90
2018-10-11T11:42:03.391Z,20.93
2018-10-11T11:44:32.088Z,21.97
2018-10-11T11:47:00.799Z,20.83
2018-10-11T11:49:29.468Z,21.13
2018-10-11T11:51:58.240Z,21.43
2018-10-11T11:54:27.156Z,22.30
2018-10-11T11:56:55.841Z,20.90
2018-10-11T11:59:24.612Z,21.97
2018-10-11T12:01:53.497Z,21.93
2018-10-11T12:04:22.977Z,21.83
2018-10-11T12:06:51.738Z,23.23
2018-10-11T12:09:20.568Z,23.60
2018-10-11T12:11:49.395Z,20.60
2018-10-11T12:14:18.076Z,21.17
2018-10-11T12:16:46.882Z,22.83
2018-10-11T12:19:15.597Z,22.00
2018-10-11T12:21:44.318Z,23.97
2018-10-11T12:24:13.041Z,21.50
2018-10-11T12:26:41.922Z,20.87
2018-10-11T12:29:10.899Z,22.03
2018-10-11T12:31:39.591Z,20.53
2018-10-11T12:34:08.295Z,20.60
2018-10-11T12:36:37.166Z,23.03
2018-10-11T12:39:07.930Z,22.57
2018-10-11T12:41:36.811Z,20.80
2018-10-11T12:44:05.496Z,22.87
2018-10-11T12:46:34.967Z,22.63
2018-10-11T12:49:03.032Z,21.43
2018-10-11T12:51:31.746Z,21.87
2018-10-11T12:54:00.675Z,20.80
2018-10-11T12:56:29.365Z,21.80
2018-10-11T12:58:58.095Z,20.73
2018-10-11T13:01:27.306Z,21.03
2018-10-11T13:03:56.031Z,18.60
2018-10-11T13:06:24.767Z,19.40
2018-10-11T13:08:53.492Z,19.20
2018-10-11T13:11:22.417Z,22.70
2018-10-11T13:13:52.818Z,19.50
2018-10-11T13:16:19.919Z,19.33
2018-10-11T13:18:48.569Z,19.50
2018-10-11T13:21:17.386Z,20.90
2018-10-11T13:23:46.156Z,20.37
2018-10-11T13:26:14.893Z,19.47
2018-10-11T13:28:43.639Z,19.27
2018-10-11T13:31:12.312Z,17.00
2018-10-11T13:33:40.977Z,18.53
2018-10-11T13:36:10.036Z,20.50
2018-10-11T13:38:38.903Z,20.70
2018-10-11T13:41:07.870Z,18.83
2018-10-11T13:43:36.501Z,20.13
2018-10-11T13:46:05.361Z,19.87
2018-10-11T13:48:34.136Z,19.47
2018-10-11T13:51:02.986Z,21.30
2018-10-11T13:53:31.703Z,20.10
2018-10-11T13:56:00.443Z,18.80
2018-10-11T13:58:29.168Z,20.23
2018-10-11T14:00:57.977Z,19.57
2018-10-11T14:03:26.744Z,19.83
2018-10-11T14:05:55.551Z,19.80
2018-10-11T14:08:24.466Z,19.90
2018-10-11T14:10:53.211Z,17.80
2018-10-11T14:13:22.228Z,19.53
2018-10-11T14:15:50.961Z,19.77
2018-10-11T14:18:19.745Z,20.63
2018-10-11T14:20:48.690Z,19.43
2018-10-11T14:23:17.963Z,19.13
2018-10-11T14:25:46.766Z,21.27
2018-10-11T14:28:15.471Z,19.57
2018-10-11T14:30:44.397Z,20.23
2018-10-11T14:33:13.207Z,18.33
2018-10-11T14:35:42.089Z,28.23
2018-10-11T14:38:11.051Z,19.17
2018-10-11T14:40:40.023Z,19.73
2018-10-11T14:43:08.855Z,18.87
2018-10-11T14:45:37.564Z,19.23
2018-10-11T14:48:06.548Z,19.30
2018-10-11T14:50:35.229Z,19.97
2018-10-11T14:53:03.970Z,17.83
2018-10-11T14:55:32.718Z,17.97
2018-10-11T14:58:01.405Z,18.90
2018-10-11T15:00:30.160Z,18.37
2018-10-11T15:02:59.048Z,19.47
2018-10-11T15:05:27.678Z,18.70
2018-10-11T15:07:56.352Z,18.20
2018-10-11T15:10:25.081Z,18.47
2018-10-11T15:12:53.838Z,16.40
2018-10-11T15:15:22.766Z,17.27
2018-10-11T15:17:51.513Z,16.70
2018-10-11T15:20:20.189Z,16.37
2018-10-11T15:22:48.987Z,17.63
2018-10-11T15:25:17.673Z,17.80
2018-10-11T15:27:46.414Z,16.90
2018-10-11T15:30:15.131Z,17.20
2018-10-11T15:32:44.053Z,17.27
2018-10-11T15:35:12.760Z,18.13
2018-10-11T15:37:41.439Z,17.37
2018-10-11T15:40:10.535Z,18.10
2018-10-11T15:42:39.287Z,16.87
2018-10-11T15:45:09.034Z,20.67
2018-10-11T15:47:38.232Z,17.70
2018-10-11T15:50:06.948Z,20.30
2018-10-11T15:52:36.305Z,18.73
2018-10-11T15:55:05.298Z,17.13
2018-10-11T15:57:34.002Z,16.83
2018-10-11T16:00:03.076Z,18.40
2018-10-11T16:02:31.876Z,19.10
2018-10-11T16:05:00.618Z,16.77
2018-10-11T16:07:29.471Z,16.57
2018-10-11T16:09:58.193Z,16.90
2018-10-11T16:12:27.145Z,17.00
2018-10-11T16:14:55.876Z,18.10
2018-10-11T16:17:24.629Z,17.60
2018-10-11T16:19:53.416Z,18.13
2018-10-11T16:22:22.317Z,17.77
2018-10-11T16:24:51.140Z,16.70
2018-10-11T16:27:19.976Z,17.13
2018-10-11T16:29:48.870Z,18.23
2018-10-11T16:32:17.657Z,17.33
2018-10-11T16:34:46.380Z,18.80
2018-10-11T16:37:15.113Z,19.67
2018-10-11T16:39:43.842Z,18.60
2018-10-11T16:42:12.623Z,17.83
2018-10-11T16:44:41.282Z,17.23
2018-10-11T16:47:10.036Z,18.30
2018-10-11T16:49:38.719Z,18.30
2018-10-11T16:52:07.466Z,18.53
2018-10-11T16:54:36.228Z,19.07
2018-10-11T16:57:04.885Z,17.90
2018-10-11T16:59:33.594Z,18.13
2018-10-11T17:02:02.344Z,19.30
2018-10-11T17:04:31.090Z,20.63
2018-10-11T17:06:59.749Z,20.50
2018-10-11T17:09:28.470Z,18.73
2018-10-11T17:11:57.187Z,18.30
2018-10-11T17:14:25.894Z,18.57
2018-10-11T17:16:54.627Z,17.93
2018-10-11T17:19:23.407Z,19.03
2018-10-11T17:21:52.121Z,18.33
2018-10-11T17:24:20.811Z,20.27
2018-10-11T17:26:49.548Z,19.53
2018-10-11T17:29:18.301Z,19.83
2018-10-11T17:31:46.984Z,20.33
2018-10-11T17:34:15.958Z,21.27
2018-10-11T17:36:44.732Z,18.67
2018-10-11T17:39:13.558Z,19.60
2018-10-11T17:41:42.501Z,20.60
2018-10-11T17:44:11.932Z,20.97
2018-10-11T17:46:40.976Z,34.97
2018-10-11T17:49:09.811Z,25.10
2018-10-11T17:51:38.659Z,24.77
2018-10-11T17:54:07.627Z,22.67
2018-10-11T17:56:36.482Z,20.97
2018-10-11T17:59:05.149Z,21.80
2018-10-11T18:01:33.915Z,21.17
2018-10-11T18:04:02.663Z,22.67
2018-10-11T18:06:31.473Z,21.67
2018-10-11T18:09:00.228Z,22.03
2018-10-11T18:11:29.073Z,21.80
2018-10-11T18:13:57.935Z,27.40
2018-10-11T18:16:26.602Z,49.17
2018-10-11T18:18:55.390Z,38.10
2018-10-11T18:21:24.522Z,30.27
2018-10-11T18:23:53.309Z,24.23
2018-10-11T18:26:22.158Z,23.07
2018-10-11T18:28:50.894Z,23.77
2018-10-11T18:31:19.633Z,22.60
2018-10-11T18:33:48.368Z,23.60
2018-10-11T18:36:17.387Z,23.60
2018-10-11T18:38:46.261Z,24.27
2018-10-11T18:41:15.341Z,24.67
2018-10-11T18:43:44.169Z,25.43
2018-10-11T18:46:12.970Z,25.17
2018-10-11T18:48:41.674Z,25.97
2018-10-11T18:51:10.352Z,27.07
2018-10-11T18:53:39.046Z,28.33
2018-10-11T18:56:09.249Z,31.03
2018-10-11T18:58:38.125Z,107.33
2018-10-11T19:01:06.842Z,32.00
2018-10-11T19:03:35.701Z,39.50
2018-10-11T19:06:04.405Z,34.80
2018-10-11T19:08:33.076Z,31.83
2018-10-11T19:11:01.839Z,31.63
2018-10-11T19:13:30.798Z,30.67
2018-10-11T19:15:59.898Z,30.03
2018-10-11T19:18:28.628Z,28.60
2018-10-11T19:20:57.559Z,28.83
2018-10-11T19:23:26.299Z,26.10
2018-10-11T19:25:55.029Z,29.40
2018-10-11T19:28:23.784Z,28.90
2018-10-11T19:30:52.536Z,27.20
2018-10-11T19:33:21.254Z,27.50
2018-10-11T19:35:50.507Z,25.70
2018-10-11T19:38:19.612Z,26.47
2018-10-11T19:40:48.344Z,26.03
2018-10-11T19:43:17.073Z,24.60
2018-10-11T19:45:45.793Z,25.90
2018-10-11T19:48:14.754Z,24.53
2018-10-11T19:50:43.496Z,24.47
2018-10-11T19:53:12.259Z,24.10
2018-10-11T19:55:40.996Z,23.40
2018-10-11T19:58:09.652Z,22.83
2018-10-11T20:00:39.669Z,22.60
2018-10-11T20:03:08.436Z,22.87
2018-10-11T20:05:37.180Z,22.23
2018-10-11T20:08:06.268Z,21.63
2018-10-11T20:10:34.978Z,21.67
2018-10-11T20:13:04.142Z,21.13
2018-10-11T20:15:33.028Z,20.50
2018-10-11T20:18:03.903Z,21.10
2018-10-11T20:20:30.677Z,21.57
2018-10-11T20:22:59.658Z,20.83
2018-10-11T20:25:28.471Z,20.73
2018-10-11T20:27:57.421Z,20.77
2018-10-11T20:30:26.118Z,21.37
2018-10-11T20:32:54.933Z,20.97
2018-10-11T20:35:23.777Z,21.13
2018-10-11T20:37:52.485Z,21.73
2018-10-11T20:40:21.242Z,23.07
2018-10-11T20:42:49.941Z,22.53
2018-10-11T20:45:18.716Z,22.93
2018-10-11T20:47:47.486Z,25.17
2018-10-11T20:50:16.259Z,28.87
2018-10-11T20:52:45.326Z,35.20
2018-10-11T20:55:14.030Z,34.47
2018-10-11T20:57:42.845Z,33.07
2018-10-11T21:00:11.523Z,35.27
2018-10-11T21:02:40.456Z,33.93
2018-10-11T21:05:09.174Z,36.63
2018-10-11T21:07:38.020Z,33.33
2018-10-11T21:10:07.164Z,32.77
2018-10-11T21:12:36.243Z,32.87
2018-10-11T21:15:05.382Z,35.03
2018-10-11T21:17:34.112Z,31.60
2018-10-11T21:20:02.981Z,30.93
2018-10-11T21:22:31.878Z,29.73
2018-10-11T21:25:00.639Z,29.60
2018-10-11T21:27:29.375Z,27.77
2018-10-11T21:29:58.129Z,28.43
2018-10-11T21:32:26.919Z,30.60
2018-10-11T21:34:55.598Z,29.67
2018-10-11T21:37:24.271Z,28.27
2018-10-11T21:39:52.956Z,26.70
2018-10-11T21:42:21.708Z,27.10
2018-10-11T21:44:50.364Z,27.03
2018-10-11T21:47:19.046Z,25.77
2018-10-11T21:49:47.881Z,25.20
2018-10-11T21:52:16.570Z,23.70
2018-10-11T21:54:45.268Z,26.60
2018-10-11T21:57:14.060Z,27.73
2018-10-11T21:59:42.825Z,26.50
2018-10-11T22:02:11.549Z,24.57
2018-10-11T22:04:40.551Z,24.33
2018-10-11T22:07:09.603Z,24.17
2018-10-11T22:09:38.307Z,23.27
2018-10-11T22:12:07.629Z,24.30
2018-10-11T22:14:36.399Z,22.47
2018-10-11T22:17:05.357Z,21.30
2018-10-11T22:19:34.082Z,21.33
2018-10-11T22:22:02.837Z,21.37
2018-10-11T22:24:31.599Z,21.77
2018-10-11T22:27:00.314Z,21.73
2018-10-11T22:29:28.993Z,21.03
2018-10-11T22:31:57.688Z,20.67
2018-10-11T22:34:26.478Z,21.80
2018-10-11T22:36:55.231Z,22.90
2018-10-11T22:39:24.058Z,22.20
2018-10-11T22:41:52.810Z,20.40
2018-10-11T22:44:21.527Z,20.63
2018-10-11T22:46:50.384Z,20.83
2018-10-11T22:49:19.089Z,20.70
2018-10-11T22:51:48.024Z,20.07
2018-10-11T22:54:16.946Z,21.20
2018-10-11T22:56:45.914Z,19.90
2018-10-11T22:59:14.783Z,20.30
2018-10-11T23:01:43.453Z,20.87
2018-10-11T23:04:12.235Z,20.50
2018-10-11T23:06:40.955Z,21.47
2018-10-11T23:09:10.267Z,20.67
2018-10-11T23:11:39.160Z,21.13
2018-10-11T23:14:07.880Z,21.03
2018-10-11T23:16:36.591Z,22.10
2018-10-11T23:19:05.588Z,20.90
2018-10-11T23:21:34.463Z,21.40
2018-10-11T23:24:03.187Z,19.73
2018-10-11T23:26:31.991Z,19.20
2018-10-11T23:29:00.737Z,20.53
2018-10-11T23:31:29.504Z,21.23
2018-10-11T23:33:58.339Z,20.40
2018-10-11T23:36:27.091Z,20.47
2018-10-11T23:38:56.007Z,19.73
2018-10-11T23:41:24.935Z,19.60
2018-10-11T23:43:53.864Z,19.40
2018-10-11T23:46:22.838Z,19.87
2018-10-11T23:48:51.560Z,19.97
2018-10-11T23:51:20.304Z,19.33
2018-10-11T23:53:49.030Z,19.57
2018-10-11T23:56:17.762Z,20.67
2018-10-11T23:58:47.330Z,20.43
